»·PEaware :: SKW3109 KPHX-KPSP

SKW3109 :: KPHX-KPSP

FLIGHT INFORMATION

Flight Status: Arrived
Operator:
SkyWest Airlines
More flights by this operator :: More flights under this callsign
Pilot: Jamie M. (16133)
Aircraft: CANADAIR CL-600 CRJ-700
(CRJ7)
More flights by this aircraft type
Origin: KPHX Phoenix Sky Harbor Intl
United States
Destination: KPSP Palm Springs Intl
United States
More flights between these airports :: More routes between these airports
Route: +IZZZO6 HRRBR CURIV J212 DECAS SBONO1
File this flight plan on PilotEdge
Remarks: PBN / D1 DOF / 180113 REG / N353JM EET / KZLA0020 OPR / SKW PER / C RMK / TCAS SIMBRIEF
Altitude:
(Current/Filed)
30,000ft
Speed:
(Current/Filed)
396kts
Departed: 13-Jan-18 03:55 PM
Arrived: 13-Jan-18 04:43 PM
Distance/Time
Traveled:
226nm/0:48
Distance/Time
To Go:
Arrived

Flight Plot

Page will automatically refresh every two minutes.

Flight plan parsing failed; only flown route is shown


Map Options




Map Legend


Flown Route
Filed Route
Departure Airport
Arrival Airport
Navaid (VOR, NDB)
Fix

Horizontal Profiles

Position Reports

Time Latitude Longitude Heading Altitude Ground
Speed
13-Jan-18 15:18 33.436472 -111.997276 88 1142ft 0kts
13-Jan-18 15:19 33.436472 -111.997276 88 1142ft 0kts
13-Jan-18 15:20 33.436472 -111.997276 88 1142ft 0kts
13-Jan-18 15:21 33.436472 -111.997276 88 1142ft 0kts
13-Jan-18 15:22 33.436472 -111.997276 88 1142ft 0kts
13-Jan-18 15:23 33.436472 -111.997276 88 1142ft 0kts
13-Jan-18 15:24 33.436472 -111.997276 88 1142ft 0kts
13-Jan-18 15:25 33.436472 -111.997276 88 1142ft 0kts
13-Jan-18 15:26 33.436472 -111.997276 88 1142ft 0kts
13-Jan-18 15:27 33.436472 -111.997276 88 1142ft 0kts
13-Jan-18 15:28 33.436472 -111.997276 88 1142ft 0kts
13-Jan-18 15:29 33.436472 -111.997276 88 1142ft 0kts
13-Jan-18 15:30 33.436472 -111.997276 88 1142ft 0kts
13-Jan-18 15:31 33.436472 -111.997276 88 1142ft 0kts
13-Jan-18 15:32 33.436472 -111.997276 88 1142ft 0kts
13-Jan-18 15:33 33.436472 -111.997276 88 1142ft 0kts
13-Jan-18 15:34 33.436472 -111.997276 88 1142ft 0kts
13-Jan-18 15:35 33.436472 -111.997276 88 1142ft 0kts
13-Jan-18 15:36 33.436472 -111.997276 88 1142ft 0kts
13-Jan-18 15:37 33.436475 -111.997449 94 1142ft 2kts
13-Jan-18 15:38 33.436762 -111.997801 180 1142ft 1kts
13-Jan-18 15:39 33.437092 -111.997805 179 1142ft 0kts
13-Jan-18 15:40 33.437092 -111.997805 179 1142ft 0kts
13-Jan-18 15:41 33.437092 -111.997805 179 1142ft 0kts
13-Jan-18 15:42 33.437092 -111.997805 179 1142ft 0kts
13-Jan-18 15:43 33.437092 -111.997805 179 1142ft 0kts
13-Jan-18 15:44 33.437092 -111.997805 179 1142ft 0kts
13-Jan-18 15:45 33.437092 -111.997805 179 1142ft 0kts
13-Jan-18 15:46 33.437092 -111.997805 179 1142ft 0kts
13-Jan-18 15:47 33.437791 -111.997992 2 1142ft 3kts
13-Jan-18 15:48 33.437993 -111.997978 4 1142ft 0kts
13-Jan-18 15:49 33.438000 -111.997977 4 1142ft 0kts
13-Jan-18 15:50 33.438005 -111.997977 4 1142ft 0kts
13-Jan-18 15:51 33.438993 -111.999654 270 1142ft 24kts
13-Jan-18 15:52 33.437698 -112.003607 222 1142ft 11kts
13-Jan-18 15:53 33.432921 -112.003938 237 1142ft 10kts
13-Jan-18 15:54 33.432564 -112.009937 183 1142ft 12kts
13-Jan-18 15:55 33.432127 -112.015218 270 1142ft 16kts
13-Jan-18 15:56 33.432162 -112.021820 268 1142ft 20kts
13-Jan-18 15:57 33.432117 -112.025994 272 1142ft 10kts
13-Jan-18 15:58 33.431972 -112.026939 204 1142ft 0kts
13-Jan-18 15:59 33.431969 -112.026940 204 1142ft 0kts
13-Jan-18 16:00 33.431039 -112.026575 86 1142ft 2kts
13-Jan-18 16:01 33.430761 -111.987070 85 3313ft 144kts
13-Jan-18 16:02 33.433290 -111.932282 87 6547ft 189kts
13-Jan-18 16:03 33.426025 -111.860144 135 9042ft 262kts
13-Jan-18 16:04 33.353404 -111.840028 194 11769ft 275kts
13-Jan-18 16:05 33.329772 -111.911639 297 14459ft 263kts
13-Jan-18 16:06 33.367058 -111.985194 278 16672ft 273kts
13-Jan-18 16:07 33.378187 -112.085112 280 17358ft 339kts
13-Jan-18 16:08 33.395134 -112.201928 279 19302ft 367kts
13-Jan-18 16:09 33.412144 -112.324935 280 21586ft 382kts
13-Jan-18 16:10 33.429856 -112.452697 280 23660ft 396kts
13-Jan-18 16:11 33.447626 -112.585231 278 25675ft 408kts
13-Jan-18 16:12 33.452216 -112.722393 270 27516ft 418kts
13-Jan-18 16:13 33.461479 -112.862166 285 29207ft 424kts
13-Jan-18 16:14 33.491121 -112.999956 282 30176ft 423kts
13-Jan-18 16:15 33.515110 -113.135053 283 30219ft 418kts
13-Jan-18 16:16 33.540915 -113.274050 283 30224ft 435kts
13-Jan-18 16:17 33.567176 -113.417728 283 30223ft 448kts
13-Jan-18 16:18 33.589250 -113.539047 283 30222ft 437kts
13-Jan-18 16:19 33.619306 -113.699237 282 30224ft 415kts
13-Jan-18 16:20 33.644324 -113.834281 281 30256ft 415kts
13-Jan-18 16:21 33.669277 -113.969946 281 30255ft 416kts
13-Jan-18 16:22 33.689874 -114.082977 281 30253ft 419kts
13-Jan-18 16:23 33.714709 -114.248712 281 30252ft 436kts
13-Jan-18 16:24 33.740843 -114.389524 281 30248ft 429kts
13-Jan-18 16:25 33.764591 -114.529032 281 30245ft 424kts
13-Jan-18 16:26 33.784517 -114.644628 281 30244ft 420kts
13-Jan-18 16:27 33.807969 -114.781387 281 30143ft 415kts
13-Jan-18 16:28 33.830606 -114.915249 281 28124ft 402kts
13-Jan-18 16:29 33.851080 -115.046165 274 24649ft 395kts
13-Jan-18 16:30 33.840306 -115.172240 265 24262ft 378kts
13-Jan-18 16:31 33.833683 -115.300031 266 24263ft 386kts
13-Jan-18 16:32 33.825267 -115.429998 267 24264ft 393kts
13-Jan-18 16:33 33.854892 -115.557344 294 22395ft 382kts
13-Jan-18 16:34 33.893053 -115.671312 290 18082ft 356kts
13-Jan-18 16:35 33.915913 -115.783372 268 14371ft 338kts
13-Jan-18 16:36 33.905237 -115.892239 267 11667ft 308kts
13-Jan-18 16:37 33.900007 -115.985615 267 10979ft 247kts
13-Jan-18 16:38 33.894267 -116.064668 259 10974ft 249kts
13-Jan-18 16:39 33.836141 -116.116039 203 10954ft 284kts
13-Jan-18 16:40 33.756530 -116.137628 191 9771ft 277kts
13-Jan-18 16:41 33.707607 -116.192586 241 8347ft 228kts
13-Jan-18 16:42 33.685971 -116.254570 263 6788ft 189kts
13-Jan-18 16:43 33.679949 -116.315600 265 5544ft 182kts
13-Jan-18 16:44 33.679907 -116.375410 314 5082ft 184kts
13-Jan-18 16:45 33.720812 -116.407570 320 4643ft 171kts
13-Jan-18 16:46 33.753949 -116.442258 326 3106ft 153kts
13-Jan-18 16:47 33.788934 -116.471772 324 1394ft 147kts
13-Jan-18 16:48 33.821416 -116.500288 323 523ft 143kts
13-Jan-18 16:49 33.833362 -116.512165 237 484ft 0kts
13-Jan-18 16:50 33.832163 -116.511980 143 484ft 0kts
13-Jan-18 16:51 33.828500 -116.508691 144 484ft 19kts
13-Jan-18 16:52 33.825431 -116.506822 116 484ft 9kts
13-Jan-18 16:53 33.822913 -116.504727 212 484ft 14kts
13-Jan-18 16:54 33.821558 -116.506846 286 484ft 0kts

Navigation Log

Ident Type
Flight plan parsing failed, navigation log unavailable